createdAt,value
2022-09-22T00:13:56.216Z,9.0
2022-09-22T00:18:38.627Z,8.9
2022-09-22T00:23:34.909Z,8.9
2022-09-22T00:29:15.347Z,8.8
2022-09-22T00:33:57.715Z,8.7
2022-09-22T00:38:54.055Z,8.7
2022-09-22T00:45:04.589Z,8.6
2022-09-22T00:49:52.130Z,8.6
2022-09-22T00:54:58.661Z,8.5
2022-09-22T01:00:05.104Z,8.5
2022-09-22T01:05:11.512Z,8.4
2022-09-22T01:10:45.917Z,8.3
2022-09-22T01:15:24.245Z,8.3
2022-09-22T01:20:54.713Z,8.2
2022-09-22T01:25:27.021Z,8.1
2022-09-22T01:31:03.541Z,8.1
2022-09-22T01:35:49.805Z,8.0
2022-09-22T01:40:56.218Z,7.9
2022-09-22T01:46:02.610Z,7.9
2022-09-22T01:51:28.981Z,7.8
2022-09-22T01:56:29.381Z,7.8
2022-09-22T02:01:21.878Z,7.7
2022-09-22T02:06:52.258Z,7.7
2022-09-22T02:12:36.734Z,7.6
2022-09-22T02:16:40.972Z,7.6
2022-09-22T02:21:47.367Z,7.5
2022-09-22T02:26:43.749Z,7.5
2022-09-22T02:32:00.328Z,7.4
2022-09-22T02:37:06.549Z,7.3
2022-09-22T02:42:13.006Z,7.3
2022-09-22T02:47:39.442Z,7.2
2022-09-22T02:52:25.879Z,7.2
2022-09-22T02:57:36.261Z,7.2
2022-09-22T03:02:58.729Z,7.1
2022-09-22T03:07:45.053Z,7.0
2022-09-22T03:13:14.915Z,7.0
2022-09-22T03:17:56.807Z,6.9
2022-09-22T03:23:04.313Z,6.9
2022-09-22T03:28:10.677Z,6.9
2022-09-22T03:34:17.160Z,6.8
2022-09-22T03:39:23.580Z,6.8
2022-09-22T03:43:29.811Z,6.7
2022-09-22T03:53:42.567Z,6.6
2022-09-22T03:59:09.053Z,6.6
2022-09-22T04:03:55.331Z,6.6
2022-09-22T04:09:21.758Z,6.5
2022-09-22T04:14:08.205Z,6.5
2022-09-22T04:19:14.528Z,6.4
2022-09-22T04:24:41.062Z,6.4
2022-09-22T04:29:17.389Z,6.4
2022-09-22T04:34:23.914Z,6.3
2022-09-22T04:39:40.372Z,6.3
2022-09-22T04:45:06.796Z,6.3
2022-09-22T04:49:53.164Z,6.2
2022-09-22T04:55:43.618Z,6.2
2022-09-22T05:00:05.947Z,6.2
2022-09-22T05:05:32.429Z,6.1
2022-09-22T05:10:18.749Z,6.1
2022-09-22T05:15:25.180Z,6.1
2022-09-22T05:20:31.663Z,6.0
2022-09-22T05:25:38.084Z,6.0
2022-09-22T05:31:04.477Z,6.0
2022-09-22T05:35:50.812Z,6.0
2022-09-22T05:40:57.222Z,5.9
2022-09-22T05:46:03.628Z,5.9
2022-09-22T05:51:09.973Z,5.9
2022-09-22T05:56:16.375Z,5.9
2022-09-22T06:01:46.907Z,5.9
2022-09-22T06:06:29.100Z,5.9
2022-09-22T06:11:35.540Z,5.9
2022-09-22T06:16:42.025Z,5.9
2022-09-22T06:21:38.267Z,5.9
2022-09-22T06:26:54.699Z,5.9
2022-09-22T06:32:01.115Z,6.0
2022-09-22T06:37:27.588Z,6.0
2022-09-22T06:42:33.993Z,6.1
2022-09-22T06:47:24.311Z,6.2
2022-09-22T06:52:16.656Z,6.2
2022-09-22T06:57:33.057Z,6.3
2022-09-22T07:03:03.567Z,6.4
2022-09-22T07:08:58.171Z,6.5
2022-09-22T07:13:36.452Z,6.6
2022-09-22T07:17:58.736Z,6.7
2022-09-22T07:23:49.234Z,6.8
2022-09-22T07:28:11.554Z,7.0
2022-09-22T07:33:18.058Z,7.3
2022-09-22T07:38:24.382Z,8.0
2022-09-22T07:43:30.783Z,9.0
2022-09-22T07:48:37.138Z,10.1
2022-09-22T07:53:43.646Z,11.3
2022-09-22T07:58:50.148Z,12.4
2022-09-22T08:03:56.417Z,13.5
2022-09-22T08:09:02.815Z,14.6
2022-09-22T08:14:09.264Z,15.5
2022-09-22T08:19:39.603Z,16.5
2022-09-22T08:24:22.494Z,17.5
2022-09-22T08:29:52.503Z,18.6
2022-09-22T08:34:34.809Z,19.6
2022-09-22T08:39:41.736Z,20.5
2022-09-22T08:44:38.104Z,21.3
2022-09-22T08:49:54.604Z,22.2
2022-09-22T08:55:00.976Z,22.9
2022-09-22T08:59:57.345Z,23.4
2022-09-22T09:05:12.763Z,24.1
2022-09-22T09:10:20.127Z,24.8
2022-09-22T09:15:26.540Z,25.4
2022-09-22T09:20:57.070Z,25.9
2022-09-22T09:25:39.492Z,26.4
2022-09-22T09:30:35.885Z,26.9
2022-09-22T09:35:51.280Z,27.5
2022-09-22T09:40:58.694Z,28.0
2022-09-22T09:46:05.164Z,28.4
2022-09-22T09:51:11.471Z,28.9
2022-09-22T09:56:17.883Z,29.3
2022-09-22T10:01:14.345Z,29.8
2022-09-22T10:06:19.631Z,30.1
2022-09-22T10:11:37.007Z,30.4
2022-09-22T10:17:03.407Z,30.7
2022-09-22T10:21:53.767Z,31.1
2022-09-22T10:26:56.165Z,31.4
2022-09-22T10:32:02.532Z,31.5
2022-09-22T10:37:10.018Z,31.8
2022-09-22T10:42:06.500Z,32.2
2022-09-22T10:47:26.963Z,32.5
2022-09-22T10:52:19.236Z,32.6
2022-09-22T10:57:35.658Z,32.8
2022-09-22T11:02:32.009Z,33.0
2022-09-22T11:07:48.417Z,33.3
2022-09-22T11:12:54.808Z,33.6
2022-09-22T11:18:01.165Z,33.7
2022-09-22T11:23:07.579Z,33.7
2022-09-22T11:28:18.008Z,33.5
2022-09-22T11:33:20.504Z,33.2
2022-09-22T11:38:26.868Z,32.8
2022-09-22T11:43:33.280Z,32.6
2022-09-22T11:48:39.646Z,32.5
2022-09-22T11:53:36.006Z,32.6
2022-09-22T11:58:52.431Z,32.8
2022-09-22T12:03:58.862Z,32.9
2022-09-22T12:09:05.257Z,33.0
2022-09-22T12:14:11.653Z,33.2
2022-09-22T12:19:18.004Z,33.3
2022-09-22T12:29:30.802Z,33.0
2022-09-22T12:44:49.924Z,31.9
2022-09-22T12:49:46.270Z,31.5
2022-09-22T12:55:02.670Z,31.3
2022-09-22T13:00:09.179Z,31.1
2022-09-22T13:05:05.532Z,30.9
2022-09-22T13:10:21.929Z,30.8
2022-09-22T13:16:12.525Z,30.7
2022-09-22T13:21:12.865Z,28.9
2022-09-22T13:32:18.095Z,26.9
2022-09-22T13:39:27.233Z,27.8
2022-09-22T13:43:20.666Z,27.9
2022-09-22T13:52:20.631Z,27.9
2022-09-22T13:57:07.036Z,27.8
2022-09-22T14:05:01.835Z,27.6
2022-09-22T14:07:24.462Z,27.4
2022-09-22T14:12:50.885Z,27.1
2022-09-22T14:18:45.387Z,26.7
2022-09-22T14:35:40.738Z,25.7
2022-09-22T14:38:05.821Z,25.3
2022-09-22T14:43:05.169Z,25.1
2022-09-22T14:48:11.678Z,24.9
2022-09-22T14:53:18.089Z,24.7
2022-09-22T14:58:26.026Z,24.4
2022-09-22T15:03:31.419Z,24.2
2022-09-22T15:08:38.747Z,23.9
2022-09-22T15:13:45.114Z,23.7
2022-09-22T15:18:51.498Z,23.4
2022-09-22T15:23:58.478Z,23.1
2022-09-22T15:29:04.824Z,22.8
2022-09-22T15:34:14.763Z,22.6
2022-09-22T15:39:41.308Z,22.4
2022-09-22T15:44:27.913Z,22.2
2022-09-22T15:49:24.310Z,22.0
2022-09-22T15:55:04.801Z,21.8
2022-09-22T16:00:01.120Z,21.7
2022-09-22T16:05:17.556Z,21.5
2022-09-22T16:09:49.923Z,21.3
2022-09-22T16:15:06.357Z,21.1
2022-09-22T16:20:12.768Z,21.0
2022-09-22T16:25:33.199Z,20.8
2022-09-22T16:30:26.132Z,20.6
2022-09-22T16:36:39.071Z,20.3
2022-09-22T16:41:22.399Z,20.3
2022-09-22T16:46:32.862Z,20.1
2022-09-22T16:51:35.213Z,20.0
2022-09-22T16:56:41.611Z,19.8
2022-09-22T17:01:48.183Z,19.6
2022-09-22T17:06:54.580Z,19.4
2022-09-22T17:12:00.077Z,19.3
2022-09-22T17:17:07.756Z,19.1
2022-09-22T17:22:13.170Z,18.9
2022-09-22T17:27:21.106Z,18.8
2022-09-22T17:33:27.622Z,18.6
2022-09-22T17:37:33.868Z,18.4
2022-09-22T17:42:40.246Z,18.2
2022-09-22T17:47:46.675Z,18.0
2022-09-22T17:52:53.059Z,17.8
2022-09-22T17:57:59.423Z,17.7
2022-09-22T18:08:12.250Z,17.3
2022-09-22T18:13:18.679Z,17.1
2022-09-22T18:18:25.117Z,16.9
2022-09-22T18:24:32.855Z,16.6
2022-09-22T18:29:16.168Z,16.5
2022-09-22T18:34:22.582Z,16.4
2022-09-22T18:39:28.942Z,16.2
2022-09-22T18:44:55.370Z,16.1
2022-09-22T18:49:41.763Z,15.9
2022-09-22T18:54:38.145Z,15.7
2022-09-22T18:59:54.562Z,15.6
2022-09-22T19:04:50.939Z,15.4
2022-09-22T19:10:07.350Z,15.2
2022-09-22T19:15:14.027Z,15.1
2022-09-22T19:20:40.240Z,14.9
2022-09-22T19:25:26.593Z,14.8
2022-09-22T19:30:37.065Z,14.6
2022-09-22T19:35:39.659Z,14.5
2022-09-22T19:40:49.913Z,14.3
2022-09-22T19:45:52.185Z,14.2
2022-09-22T19:50:58.592Z,14.1
2022-09-22T19:57:05.246Z,13.9
2022-09-22T20:01:11.539Z,13.8
2022-09-22T20:06:07.849Z,13.7
2022-09-22T20:11:26.828Z,13.5
2022-09-22T20:16:30.780Z,13.4
2022-09-22T20:21:41.183Z,13.3
2022-09-22T20:26:43.653Z,13.2
2022-09-22T20:31:54.087Z,13.1
2022-09-22T20:36:56.439Z,12.9
2022-09-22T20:42:02.831Z,12.8
2022-09-22T20:47:09.237Z,12.7
2022-09-22T20:52:15.618Z,12.6
2022-09-22T20:57:21.979Z,12.5
2022-09-22T21:02:28.447Z,12.4
2022-09-22T21:07:54.758Z,12.3
2022-09-22T21:12:41.143Z,12.2
2022-09-22T21:17:47.535Z,12.1
2022-09-22T21:23:18.171Z,12.0
2022-09-22T21:28:00.594Z,11.9
2022-09-22T21:38:13.330Z,11.7
2022-09-22T21:43:20.829Z,11.6
2022-09-22T21:48:27.291Z,11.5
2022-09-22T21:53:53.671Z,11.4
2022-09-22T21:58:40.023Z,11.3
2022-09-22T22:04:10.752Z,11.3
2022-09-22T22:09:12.806Z,11.2
2022-09-22T22:13:59.288Z,11.1
2022-09-22T22:19:05.757Z,11.0
2022-09-22T22:24:12.166Z,10.9
2022-09-22T22:29:08.498Z,10.9
2022-09-22T22:35:26.996Z,10.8
2022-09-22T22:39:31.351Z,10.6
2022-09-22T22:44:27.631Z,10.6
2022-09-22T22:49:33.998Z,10.5
2022-09-22T22:55:10.555Z,10.5
2022-09-22T22:59:56.877Z,10.4
2022-09-22T23:05:03.319Z,10.3
2022-09-22T23:10:09.653Z,10.2
2022-09-22T23:15:23.637Z,10.2
2022-09-22T23:25:32.609Z,10.0
2022-09-22T23:30:39.179Z,10.0
2022-09-22T23:36:13.714Z,9.9
2022-09-22T23:40:52.024Z,9.8
2022-09-22T23:45:58.533Z,9.8
2022-09-22T23:50:54.760Z,9.8
2022-09-22T23:56:11.170Z,9.7
